sensor_id;sensor_type;location;lat;lon;timestamp;temperature;humidity
44271;DHT22;29963;44.594;11.368;2022-11-11T00:00:32;14.20;99.90
44271;DHT22;29963;44.594;11.368;2022-11-11T00:02:58;14.10;99.90
44271;DHT22;29963;44.594;11.368;2022-11-11T00:05:25;14.10;99.90
44271;DHT22;29963;44.594;11.368;2022-11-11T00:07:52;14.10;99.90
44271;DHT22;29963;44.594;11.368;2022-11-11T00:10:18;14.10;99.90
44271;DHT22;29963;44.594;11.368;2022-11-11T00:12:44;14.10;99.90
44271;DHT22;29963;44.594;11.368;2022-11-11T00:15:10;14.10;99.90
44271;DHT22;29963;44.594;11.368;2022-11-11T00:17:36;14.10;99.90
44271;DHT22;29963;44.594;11.368;2022-11-11T00:20:20;14.10;99.90
44271;DHT22;29963;44.594;11.368;2022-11-11T00:23:04;14.10;99.90
44271;DHT22;29963;44.594;11.368;2022-11-11T00:25:52;14.10;99.90
44271;DHT22;29963;44.594;11.368;2022-11-11T00:28:18;14.10;99.90
44271;DHT22;29963;44.594;11.368;2022-11-11T00:30:44;14.00;99.90
44271;DHT22;29963;44.594;11.368;2022-11-11T00:33:10;14.00;99.90
44271;DHT22;29963;44.594;11.368;2022-11-11T00:35:35;14.00;99.90
44271;DHT22;29963;44.594;11.368;2022-11-11T00:38:19;14.10;99.90
44271;DHT22;29963;44.594;11.368;2022-11-11T00:41:03;14.10;99.90
44271;DHT22;29963;44.594;11.368;2022-11-11T00:43:29;14.10;99.90
44271;DHT22;29963;44.594;11.368;2022-11-11T00:45:55;14.10;99.90
44271;DHT22;29963;44.594;11.368;2022-11-11T00:48:40;14.10;99.90
44271;DHT22;29963;44.594;11.368;2022-11-11T00:51:25;14.10;99.90
44271;DHT22;29963;44.594;11.368;2022-11-11T00:53:50;14.10;99.90
44271;DHT22;29963;44.594;11.368;2022-11-11T00:56:16;14.10;99.90
44271;DHT22;29963;44.594;11.368;2022-11-11T00:58:42;14.10;99.90
44271;DHT22;29963;44.594;11.368;2022-11-11T01:01:07;14.10;99.90
44271;DHT22;29963;44.594;11.368;2022-11-11T01:03:33;14.10;99.90
44271;DHT22;29963;44.594;11.368;2022-11-11T01:06:00;14.10;99.90
44271;DHT22;29963;44.594;11.368;2022-11-11T01:08:31;14.10;99.90
44271;DHT22;29963;44.594;11.368;2022-11-11T01:10:57;14.10;99.90
44271;DHT22;29963;44.594;11.368;2022-11-11T01:13:29;14.00;99.90
44271;DHT22;29963;44.594;11.368;2022-11-11T01:16:06;14.10;99.90
44271;DHT22;29963;44.594;11.368;2022-11-11T01:18:32;14.00;99.90
44271;DHT22;29963;44.594;11.368;2022-11-11T01:21:03;14.00;99.90
44271;DHT22;29963;44.594;11.368;2022-11-11T01:23:30;14.00;99.90
44271;DHT22;29963;44.594;11.368;2022-11-11T01:26:21;13.90;99.90
44271;DHT22;29963;44.594;11.368;2022-11-11T01:28:51;14.00;99.90
44271;DHT22;29963;44.594;11.368;2022-11-11T01:31:18;14.00;99.90
44271;DHT22;29963;44.594;11.368;2022-11-11T01:33:44;14.00;99.90
44271;DHT22;29963;44.594;11.368;2022-11-11T01:36:13;14.00;99.90
44271;DHT22;29963;44.594;11.368;2022-11-11T01:38:41;13.90;99.90
44271;DHT22;29963;44.594;11.368;2022-11-11T01:41:09;14.00;99.90
44271;DHT22;29963;44.594;11.368;2022-11-11T01:43:54;14.00;99.90
44271;DHT22;29963;44.594;11.368;2022-11-11T01:46:33;14.00;99.90
44271;DHT22;29963;44.594;11.368;2022-11-11T01:49:24;14.00;99.90
44271;DHT22;29963;44.594;11.368;2022-11-11T01:54:40;14.00;99.90
44271;DHT22;29963;44.594;11.368;2022-11-11T02:00:08;14.00;99.90
44271;DHT22;29963;44.594;11.368;2022-11-11T02:02:37;14.00;99.90
44271;DHT22;29963;44.594;11.368;2022-11-11T02:05:05;14.00;99.90
44271;DHT22;29963;44.594;11.368;2022-11-11T02:07:51;14.00;99.90
44271;DHT22;29963;44.594;11.368;2022-11-11T02:10:23;14.10;99.90
44271;DHT22;29963;44.594;11.368;2022-11-11T02:12:49;14.10;99.90
44271;DHT22;29963;44.594;11.368;2022-11-11T02:15:33;14.10;99.90
44271;DHT22;29963;44.594;11.368;2022-11-11T02:17:59;14.10;99.90
44271;DHT22;29963;44.594;11.368;2022-11-11T02:20:28;14.20;99.90
44271;DHT22;29963;44.594;11.368;2022-11-11T02:23:01;14.10;99.90
44271;DHT22;29963;44.594;11.368;2022-11-11T02:25:29;14.20;99.90
44271;DHT22;29963;44.594;11.368;2022-11-11T02:27:58;14.20;99.90
44271;DHT22;29963;44.594;11.368;2022-11-11T02:30:25;14.20;99.90
44271;DHT22;29963;44.594;11.368;2022-11-11T02:32:52;14.20;99.90
44271;DHT22;29963;44.594;11.368;2022-11-11T02:35:21;14.20;99.90
44271;DHT22;29963;44.594;11.368;2022-11-11T02:37:51;14.20;99.90
44271;DHT22;29963;44.594;11.368;2022-11-11T02:40:36;14.20;99.90
44271;DHT22;29963;44.594;11.368;2022-11-11T02:43:02;14.20;99.90
44271;DHT22;29963;44.594;11.368;2022-11-11T02:45:28;14.20;99.90
44271;DHT22;29963;44.594;11.368;2022-11-11T02:47:53;14.20;99.90
44271;DHT22;29963;44.594;11.368;2022-11-11T02:50:19;14.10;99.90
44271;DHT22;29963;44.594;11.368;2022-11-11T02:52:44;14.10;99.90
44271;DHT22;29963;44.594;11.368;2022-11-11T02:55:11;14.10;99.90
44271;DHT22;29963;44.594;11.368;2022-11-11T02:57:37;14.10;99.90
44271;DHT22;29963;44.594;11.368;2022-11-11T03:00:04;14.10;99.90
44271;DHT22;29963;44.594;11.368;2022-11-11T03:02:29;14.10;99.90
44271;DHT22;29963;44.594;11.368;2022-11-11T03:04:56;14.10;99.90
44271;DHT22;29963;44.594;11.368;2022-11-11T03:07:23;14.10;99.90
44271;DHT22;29963;44.594;11.368;2022-11-11T03:09:49;14.10;99.90
44271;DHT22;29963;44.594;11.368;2022-11-11T03:12:14;14.10;99.90
44271;DHT22;29963;44.594;11.368;2022-11-11T03:14:40;14.10;99.90
44271;DHT22;29963;44.594;11.368;2022-11-11T03:17:06;14.00;99.90
44271;DHT22;29963;44.594;11.368;2022-11-11T03:19:50;14.00;99.90
44271;DHT22;29963;44.594;11.368;2022-11-11T03:22:16;14.00;99.90
44271;DHT22;29963;44.594;11.368;2022-11-11T03:24:41;14.00;99.90
44271;DHT22;29963;44.594;11.368;2022-11-11T03:27:25;14.00;99.90
44271;DHT22;29963;44.594;11.368;2022-11-11T03:29:51;14.00;99.90
44271;DHT22;29963;44.594;11.368;2022-11-11T03:32:16;14.00;99.90
44271;DHT22;29963;44.594;11.368;2022-11-11T03:34:42;14.00;99.90
44271;DHT22;29963;44.594;11.368;2022-11-11T03:37:09;14.00;99.90
44271;DHT22;29963;44.594;11.368;2022-11-11T03:39:54;14.10;99.90
44271;DHT22;29963;44.594;11.368;2022-11-11T03:42:20;14.10;99.90
44271;DHT22;29963;44.594;11.368;2022-11-11T03:44:45;14.10;99.90
44271;DHT22;29963;44.594;11.368;2022-11-11T03:47:11;14.10;99.90
44271;DHT22;29963;44.594;11.368;2022-11-11T03:49:37;14.10;99.90
44271;DHT22;29963;44.594;11.368;2022-11-11T03:52:02;14.00;99.90
44271;DHT22;29963;44.594;11.368;2022-11-11T03:54:28;14.00;99.90
44271;DHT22;29963;44.594;11.368;2022-11-11T03:56:54;14.00;99.90
44271;DHT22;29963;44.594;11.368;2022-11-11T03:59:42;14.00;99.90
44271;DHT22;29963;44.594;11.368;2022-11-11T04:02:13;14.00;99.90
44271;DHT22;29963;44.594;11.368;2022-11-11T04:04:58;14.00;99.90
44271;DHT22;29963;44.594;11.368;2022-11-11T04:07:42;13.90;99.90
44271;DHT22;29963;44.594;11.368;2022-11-11T04:10:28;13.90;99.90
44271;DHT22;29963;44.594;11.368;2022-11-11T04:12:55;13.80;99.90
44271;DHT22;29963;44.594;11.368;2022-11-11T04:15:56;13.80;99.90
44271;DHT22;29963;44.594;11.368;2022-11-11T04:18:32;13.80;99.90
44271;DHT22;29963;44.594;11.368;2022-11-11T04:21:16;13.70;99.90
44271;DHT22;29963;44.594;11.368;2022-11-11T04:24:01;13.70;99.90
44271;DHT22;29963;44.594;11.368;2022-11-11T04:26:26;13.70;99.90
44271;DHT22;29963;44.594;11.368;2022-11-11T04:28:52;13.70;99.90
44271;DHT22;29963;44.594;11.368;2022-11-11T04:31:36;13.70;99.90
44271;DHT22;29963;44.594;11.368;2022-11-11T04:34:22;13.60;99.90
44271;DHT22;29963;44.594;11.368;2022-11-11T04:36:48;13.60;99.90
44271;DHT22;29963;44.594;11.368;2022-11-11T04:39:13;13.60;99.90
44271;DHT22;29963;44.594;11.368;2022-11-11T04:41:58;13.60;99.90
44271;DHT22;29963;44.594;11.368;2022-11-11T04:44:23;13.60;99.90
44271;DHT22;29963;44.594;11.368;2022-11-11T04:47:07;13.50;99.90
44271;DHT22;29963;44.594;11.368;2022-11-11T04:49:33;13.60;99.90
44271;DHT22;29963;44.594;11.368;2022-11-11T04:51:58;13.60;99.90
44271;DHT22;29963;44.594;11.368;2022-11-11T04:54:42;13.60;99.90
44271;DHT22;29963;44.594;11.368;2022-11-11T04:57:26;13.60;99.90
44271;DHT22;29963;44.594;11.368;2022-11-11T04:59:52;13.50;99.90
44271;DHT22;29963;44.594;11.368;2022-11-11T05:02:18;13.50;99.90
44271;DHT22;29963;44.594;11.368;2022-11-11T05:05:02;13.50;99.90
44271;DHT22;29963;44.594;11.368;2022-11-11T05:07:27;13.40;99.90
44271;DHT22;29963;44.594;11.368;2022-11-11T05:10:12;13.30;99.90
44271;DHT22;29963;44.594;11.368;2022-11-11T05:12:37;13.30;99.90
44271;DHT22;29963;44.594;11.368;2022-11-11T05:15:03;13.30;99.90
44271;DHT22;29963;44.594;11.368;2022-11-11T05:17:47;13.30;99.90
44271;DHT22;29963;44.594;11.368;2022-11-11T05:20:31;13.30;99.90
44271;DHT22;29963;44.594;11.368;2022-11-11T05:23:15;13.30;99.90
44271;DHT22;29963;44.594;11.368;2022-11-11T05:25:40;13.20;99.90
44271;DHT22;29963;44.594;11.368;2022-11-11T05:28:06;13.20;99.90
44271;DHT22;29963;44.594;11.368;2022-11-11T05:30:32;13.10;99.90
44271;DHT22;29963;44.594;11.368;2022-11-11T05:32:59;13.10;99.90
44271;DHT22;29963;44.594;11.368;2022-11-11T05:35:24;13.10;99.90
44271;DHT22;29963;44.594;11.368;2022-11-11T05:37:50;13.10;99.90
44271;DHT22;29963;44.594;11.368;2022-11-11T05:40:34;13.10;99.90
44271;DHT22;29963;44.594;11.368;2022-11-11T05:43:00;13.10;99.90
44271;DHT22;29963;44.594;11.368;2022-11-11T05:45:25;13.10;99.90
44271;DHT22;29963;44.594;11.368;2022-11-11T05:47:51;13.10;99.90
44271;DHT22;29963;44.594;11.368;2022-11-11T05:50:16;13.10;99.90
44271;DHT22;29963;44.594;11.368;2022-11-11T05:52:51;13.00;99.90
44271;DHT22;29963;44.594;11.368;2022-11-11T05:55:16;13.00;99.90
44271;DHT22;29963;44.594;11.368;2022-11-11T05:57:42;12.90;99.90
44271;DHT22;29963;44.594;11.368;2022-11-11T06:00:08;12.80;99.90
44271;DHT22;29963;44.594;11.368;2022-11-11T06:02:34;12.80;99.90
44271;DHT22;29963;44.594;11.368;2022-11-11T06:05:00;12.80;99.90
44271;DHT22;29963;44.594;11.368;2022-11-11T06:07:26;12.80;99.90
44271;DHT22;29963;44.594;11.368;2022-11-11T06:09:51;12.80;99.90
44271;DHT22;29963;44.594;11.368;2022-11-11T06:12:17;12.80;99.90
44271;DHT22;29963;44.594;11.368;2022-11-11T06:14:42;12.90;99.90
44271;DHT22;29963;44.594;11.368;2022-11-11T06:17:08;12.90;99.90
44271;DHT22;29963;44.594;11.368;2022-11-11T06:19:34;12.90;99.90
44271;DHT22;29963;44.594;11.368;2022-11-11T06:21:59;12.90;99.90
44271;DHT22;29963;44.594;11.368;2022-11-11T06:24:26;12.90;99.90
44271;DHT22;29963;44.594;11.368;2022-11-11T06:26:52;12.90;99.90
44271;DHT22;29963;44.594;11.368;2022-11-11T06:29:17;12.90;99.90
44271;DHT22;29963;44.594;11.368;2022-11-11T06:31:43;12.90;99.90
44271;DHT22;29963;44.594;11.368;2022-11-11T06:34:09;12.90;99.90
44271;DHT22;29963;44.594;11.368;2022-11-11T06:36:35;12.80;99.90
44271;DHT22;29963;44.594;11.368;2022-11-11T06:39:01;12.80;99.90
44271;DHT22;29963;44.594;11.368;2022-11-11T06:41:27;12.80;99.90
44271;DHT22;29963;44.594;11.368;2022-11-11T06:43:52;12.80;99.90
44271;DHT22;29963;44.594;11.368;2022-11-11T06:46:23;12.80;99.90
44271;DHT22;29963;44.594;11.368;2022-11-11T06:48:49;12.80;99.90
44271;DHT22;29963;44.594;11.368;2022-11-11T06:51:15;12.80;99.90
44271;DHT22;29963;44.594;11.368;2022-11-11T06:53:41;12.80;99.90
44271;DHT22;29963;44.594;11.368;2022-11-11T06:56:07;12.80;99.90
44271;DHT22;29963;44.594;11.368;2022-11-11T06:58:33;12.90;99.90
44271;DHT22;29963;44.594;11.368;2022-11-11T07:01:06;12.80;99.90
44271;DHT22;29963;44.594;11.368;2022-11-11T07:03:32;12.80;99.90
44271;DHT22;29963;44.594;11.368;2022-11-11T07:06:03;12.80;99.90
44271;DHT22;29963;44.594;11.368;2022-11-11T07:08:29;12.90;99.90
44271;DHT22;29963;44.594;11.368;2022-11-11T07:10:55;12.80;99.90
44271;DHT22;29963;44.594;11.368;2022-11-11T07:13:20;12.80;99.90
44271;DHT22;29963;44.594;11.368;2022-11-11T07:15:46;12.70;99.90
44271;DHT22;29963;44.594;11.368;2022-11-11T07:18:12;12.80;99.90
44271;DHT22;29963;44.594;11.368;2022-11-11T07:20:38;12.70;99.90
44271;DHT22;29963;44.594;11.368;2022-11-11T07:23:04;12.80;99.90
44271;DHT22;29963;44.594;11.368;2022-11-11T07:25:30;12.90;99.90
44271;DHT22;29963;44.594;11.368;2022-11-11T07:27:55;12.90;99.90
44271;DHT22;29963;44.594;11.368;2022-11-11T07:30:22;12.90;99.90
44271;DHT22;29963;44.594;11.368;2022-11-11T07:32:49;12.90;99.90
44271;DHT22;29963;44.594;11.368;2022-11-11T07:35:16;13.00;99.90
44271;DHT22;29963;44.594;11.368;2022-11-11T07:37:42;13.00;99.90
44271;DHT22;29963;44.594;11.368;2022-11-11T07:40:10;13.00;99.90
44271;DHT22;29963;44.594;11.368;2022-11-11T07:42:39;13.10;99.90
44271;DHT22;29963;44.594;11.368;2022-11-11T07:45:07;13.10;99.90
44271;DHT22;29963;44.594;11.368;2022-11-11T07:47:32;13.10;99.90
44271;DHT22;29963;44.594;11.368;2022-11-11T07:50:02;13.10;99.90
44271;DHT22;29963;44.594;11.368;2022-11-11T07:52:28;13.20;99.90
44271;DHT22;29963;44.594;11.368;2022-11-11T07:54:54;13.10;99.90
44271;DHT22;29963;44.594;11.368;2022-11-11T07:57:19;13.10;99.90
44271;DHT22;29963;44.594;11.368;2022-11-11T07:59:45;13.10;99.90
44271;DHT22;29963;44.594;11.368;2022-11-11T08:02:12;13.20;99.90
44271;DHT22;29963;44.594;11.368;2022-11-11T08:04:38;13.20;99.90
44271;DHT22;29963;44.594;11.368;2022-11-11T08:07:04;13.40;99.90
44271;DHT22;29963;44.594;11.368;2022-11-11T08:09:29;13.40;99.90
44271;DHT22;29963;44.594;11.368;2022-11-11T08:11:55;13.50;99.90
44271;DHT22;29963;44.594;11.368;2022-11-11T08:14:39;13.50;99.90
44271;DHT22;29963;44.594;11.368;2022-11-11T08:17:05;13.50;99.90
44271;DHT22;29963;44.594;11.368;2022-11-11T08:19:30;13.50;99.90
44271;DHT22;29963;44.594;11.368;2022-11-11T08:21:56;13.50;99.90
44271;DHT22;29963;44.594;11.368;2022-11-11T08:24:22;13.60;99.90
44271;DHT22;29963;44.594;11.368;2022-11-11T08:26:48;13.70;99.90
44271;DHT22;29963;44.594;11.368;2022-11-11T08:29:14;13.70;99.90
44271;DHT22;29963;44.594;11.368;2022-11-11T08:31:40;13.80;99.90
44271;DHT22;29963;44.594;11.368;2022-11-11T08:34:06;13.90;99.90
44271;DHT22;29963;44.594;11.368;2022-11-11T08:36:31;13.90;99.90
44271;DHT22;29963;44.594;11.368;2022-11-11T08:38:57;14.00;99.90
44271;DHT22;29963;44.594;11.368;2022-11-11T08:41:23;14.00;99.90
44271;DHT22;29963;44.594;11.368;2022-11-11T08:43:53;14.00;99.90
44271;DHT22;29963;44.594;11.368;2022-11-11T08:46:18;14.10;99.90
44271;DHT22;29963;44.594;11.368;2022-11-11T08:48:44;14.00;99.90
44271;DHT22;29963;44.594;11.368;2022-11-11T08:51:10;14.10;99.90
44271;DHT22;29963;44.594;11.368;2022-11-11T08:53:36;14.10;99.90
44271;DHT22;29963;44.594;11.368;2022-11-11T08:56:02;14.20;99.90
44271;DHT22;29963;44.594;11.368;2022-11-11T08:58:28;14.30;99.90
44271;DHT22;29963;44.594;11.368;2022-11-11T09:00:53;14.20;99.90
44271;DHT22;29963;44.594;11.368;2022-11-11T09:03:19;14.20;99.90
44271;DHT22;29963;44.594;11.368;2022-11-11T09:05:45;14.20;99.90
44271;DHT22;29963;44.594;11.368;2022-11-11T09:08:12;14.20;99.90
44271;DHT22;29963;44.594;11.368;2022-11-11T09:10:38;14.30;99.90
44271;DHT22;29963;44.594;11.368;2022-11-11T09:13:04;14.40;99.90
44271;DHT22;29963;44.594;11.368;2022-11-11T09:15:30;14.40;99.90
44271;DHT22;29963;44.594;11.368;2022-11-11T09:17:56;14.50;99.90
44271;DHT22;29963;44.594;11.368;2022-11-11T09:20:23;14.50;99.90
44271;DHT22;29963;44.594;11.368;2022-11-11T09:22:49;14.50;99.90
44271;DHT22;29963;44.594;11.368;2022-11-11T09:25:15;14.70;99.90
44271;DHT22;29963;44.594;11.368;2022-11-11T09:27:42;14.80;99.90
44271;DHT22;29963;44.594;11.368;2022-11-11T09:30:08;14.90;99.90
44271;DHT22;29963;44.594;11.368;2022-11-11T09:32:34;15.10;99.90
44271;DHT22;29963;44.594;11.368;2022-11-11T09:35:01;15.20;99.90
44271;DHT22;29963;44.594;11.368;2022-11-11T09:37:27;15.20;99.90
44271;DHT22;29963;44.594;11.368;2022-11-11T09:39:53;15.30;99.90
44271;DHT22;29963;44.594;11.368;2022-11-11T09:42:36;15.30;99.90
44271;DHT22;29963;44.594;11.368;2022-11-11T09:45:19;15.40;99.90
44271;DHT22;29963;44.594;11.368;2022-11-11T09:50:27;15.60;99.90
44271;DHT22;29963;44.594;11.368;2022-11-11T09:53:23;15.60;99.90
44271;DHT22;29963;44.594;11.368;2022-11-11T09:55:54;15.70;99.90
44271;DHT22;29963;44.594;11.368;2022-11-11T09:58:31;15.80;99.90
44271;DHT22;29963;44.594;11.368;2022-11-11T10:01:01;15.90;99.90
44271;DHT22;29963;44.594;11.368;2022-11-11T10:03:34;16.00;99.90
44271;DHT22;29963;44.594;11.368;2022-11-11T10:06:27;16.10;99.90
44271;DHT22;29963;44.594;11.368;2022-11-11T10:14:12;16.20;99.90
44271;DHT22;29963;44.594;11.368;2022-11-11T10:19:28;16.30;99.90
44271;DHT22;29963;44.594;11.368;2022-11-11T10:22:04;16.30;99.90
44271;DHT22;29963;44.594;11.368;2022-11-11T10:24:40;16.30;99.90
44271;DHT22;29963;44.594;11.368;2022-11-11T10:27:20;16.20;99.90
44271;DHT22;29963;44.594;11.368;2022-11-11T10:29:47;16.30;99.90
44271;DHT22;29963;44.594;11.368;2022-11-11T10:32:18;16.20;99.90
44271;DHT22;29963;44.594;11.368;2022-11-11T10:34:45;16.10;99.90
44271;DHT22;29963;44.594;11.368;2022-11-11T10:37:40;16.10;99.90
44271;DHT22;29963;44.594;11.368;2022-11-11T10:40:19;16.20;99.90
44271;DHT22;29963;44.594;11.368;2022-11-11T10:42:46;16.20;99.90
44271;DHT22;29963;44.594;11.368;2022-11-11T10:48:52;16.30;99.90
44271;DHT22;29963;44.594;11.368;2022-11-11T10:51:22;16.40;99.90
44271;DHT22;29963;44.594;11.368;2022-11-11T10:54:09;16.30;99.90
44271;DHT22;29963;44.594;11.368;2022-11-11T10:59:41;16.40;99.90
44271;DHT22;29963;44.594;11.368;2022-11-11T11:02:22;16.50;99.90
44271;DHT22;29963;44.594;11.368;2022-11-11T11:04:52;16.60;99.90
44271;DHT22;29963;44.594;11.368;2022-11-11T11:07:23;16.70;99.90
44271;DHT22;29963;44.594;11.368;2022-11-11T11:10:07;16.80;99.90
44271;DHT22;29963;44.594;11.368;2022-11-11T11:13:06;16.80;99.90
44271;DHT22;29963;44.594;11.368;2022-11-11T11:15:37;16.80;99.90
44271;DHT22;29963;44.594;11.368;2022-11-11T11:18:11;16.80;99.90
44271;DHT22;29963;44.594;11.368;2022-11-11T11:20:38;16.80;99.90
44271;DHT22;29963;44.594;11.368;2022-11-11T11:23:04;16.90;99.90
44271;DHT22;29963;44.594;11.368;2022-11-11T11:25:31;16.90;99.90
44271;DHT22;29963;44.594;11.368;2022-11-11T11:28:07;16.80;99.90
44271;DHT22;29963;44.594;11.368;2022-11-11T11:30:33;16.80;99.90
44271;DHT22;29963;44.594;11.368;2022-11-11T11:33:01;16.80;99.90
44271;DHT22;29963;44.594;11.368;2022-11-11T11:35:38;16.90;99.90
44271;DHT22;29963;44.594;11.368;2022-11-11T11:38:09;17.00;99.90
44271;DHT22;29963;44.594;11.368;2022-11-11T11:40:55;17.10;99.90
44271;DHT22;29963;44.594;11.368;2022-11-11T11:43:40;17.20;99.90
44271;DHT22;29963;44.594;11.368;2022-11-11T11:46:28;17.30;99.90
44271;DHT22;29963;44.594;11.368;2022-11-11T11:51:43;17.60;99.90
44271;DHT22;29963;44.594;11.368;2022-11-11T11:57:02;17.70;99.90
44271;DHT22;29963;44.594;11.368;2022-11-11T11:59:45;17.70;99.90
44271;DHT22;29963;44.594;11.368;2022-11-11T12:13:07;17.60;99.90
44271;DHT22;29963;44.594;11.368;2022-11-11T12:15:44;17.60;99.90
44271;DHT22;29963;44.594;11.368;2022-11-11T12:20:55;17.60;99.90
44271;DHT22;29963;44.594;11.368;2022-11-11T12:29:14;17.50;99.90
44271;DHT22;29963;44.594;11.368;2022-11-11T12:37:24;17.60;99.90
44271;DHT22;29963;44.594;11.368;2022-11-11T12:45:45;17.60;99.90
44271;DHT22;29963;44.594;11.368;2022-11-11T12:54:02;17.90;99.90
44271;DHT22;29963;44.594;11.368;2022-11-11T13:05:14;17.80;99.90
44271;DHT22;29963;44.594;11.368;2022-11-11T13:16:25;17.90;99.90
44271;DHT22;29963;44.594;11.368;2022-11-11T13:19:14;17.90;99.90
44271;DHT22;29963;44.594;11.368;2022-11-11T13:21:48;18.00;99.90
44271;DHT22;29963;44.594;11.368;2022-11-11T13:24:19;18.10;99.90
44271;DHT22;29963;44.594;11.368;2022-11-11T13:26:53;18.20;99.90
44271;DHT22;29963;44.594;11.368;2022-11-11T13:32:47;18.40;99.90
44271;DHT22;29963;44.594;11.368;2022-11-11T13:38:05;18.50;99.90
44271;DHT22;29963;44.594;11.368;2022-11-11T13:40:38;18.60;99.90
44271;DHT22;29963;44.594;11.368;2022-11-11T13:43:13;18.70;99.90
44271;DHT22;29963;44.594;11.368;2022-11-11T13:45:42;18.70;99.90
44271;DHT22;29963;44.594;11.368;2022-11-11T13:48:27;18.80;99.90
44271;DHT22;29963;44.594;11.368;2022-11-11T13:53:36;18.80;99.90
44271;DHT22;29963;44.594;11.368;2022-11-11T13:56:03;18.80;99.90
44271;DHT22;29963;44.594;11.368;2022-11-11T13:58:32;18.80;99.90
44271;DHT22;29963;44.594;11.368;2022-11-11T14:01:03;18.60;99.90
44271;DHT22;29963;44.594;11.368;2022-11-11T14:19:44;18.50;99.90
44271;DHT22;29963;44.594;11.368;2022-11-11T14:22:01;18.40;99.90
44271;DHT22;29963;44.594;11.368;2022-11-11T14:24:34;18.30;99.90
44271;DHT22;29963;44.594;11.368;2022-11-11T14:29:37;18.00;99.90
44271;DHT22;29963;44.594;11.368;2022-11-11T14:37:52;17.80;99.90
44271;DHT22;29963;44.594;11.368;2022-11-11T14:40:27;17.80;99.90
44271;DHT22;29963;44.594;11.368;2022-11-11T14:42:54;17.70;99.90
44271;DHT22;29963;44.594;11.368;2022-11-11T14:47:48;17.60;99.90
44271;DHT22;29963;44.594;11.368;2022-11-11T14:52:53;17.60;99.90
44271;DHT22;29963;44.594;11.368;2022-11-11T14:55:37;17.60;99.90
44271;DHT22;29963;44.594;11.368;2022-11-11T15:03:44;17.50;99.90
44271;DHT22;29963;44.594;11.368;2022-11-11T15:06:25;17.30;99.90
44271;DHT22;29963;44.594;11.368;2022-11-11T15:11:50;17.10;99.90
44271;DHT22;29963;44.594;11.368;2022-11-11T15:14:42;17.10;99.90
44271;DHT22;29963;44.594;11.368;2022-11-11T15:19:54;17.00;99.90
44271;DHT22;29963;44.594;11.368;2022-11-11T15:33:20;16.80;99.90
44271;DHT22;29963;44.594;11.368;2022-11-11T15:36:07;16.80;99.90
44271;DHT22;29963;44.594;11.368;2022-11-11T15:38:35;16.70;99.90
44271;DHT22;29963;44.594;11.368;2022-11-11T15:41:01;16.70;99.90
44271;DHT22;29963;44.594;11.368;2022-11-11T15:43:29;16.60;99.90
44271;DHT22;29963;44.594;11.368;2022-11-11T15:46:00;16.60;99.90
44271;DHT22;29963;44.594;11.368;2022-11-11T15:48:32;16.50;99.90
44271;DHT22;29963;44.594;11.368;2022-11-11T15:53:48;16.40;99.90
44271;DHT22;29963;44.594;11.368;2022-11-11T15:56:31;16.40;99.90
44271;DHT22;29963;44.594;11.368;2022-11-11T15:58:57;16.30;99.90
44271;DHT22;29963;44.594;11.368;2022-11-11T16:01:25;16.30;99.90
44271;DHT22;29963;44.594;11.368;2022-11-11T16:03:52;16.30;99.90
44271;DHT22;29963;44.594;11.368;2022-11-11T16:06:18;16.20;99.90
44271;DHT22;29963;44.594;11.368;2022-11-11T16:08:54;16.20;99.90
44271;DHT22;29963;44.594;11.368;2022-11-11T16:11:21;16.20;99.90
44271;DHT22;29963;44.594;11.368;2022-11-11T16:18:42;16.00;99.90
44271;DHT22;29963;44.594;11.368;2022-11-11T16:21:17;15.90;99.90
44271;DHT22;29963;44.594;11.368;2022-11-11T16:23:44;15.90;99.90
44271;DHT22;29963;44.594;11.368;2022-11-11T16:26:11;15.80;99.90
44271;DHT22;29963;44.594;11.368;2022-11-11T16:37:05;15.70;99.90
44271;DHT22;29963;44.594;11.368;2022-11-11T16:39:32;15.70;99.90
44271;DHT22;29963;44.594;11.368;2022-11-11T16:42:00;15.70;99.90
44271;DHT22;29963;44.594;11.368;2022-11-11T16:44:37;15.70;99.90
44271;DHT22;29963;44.594;11.368;2022-11-11T16:47:05;15.60;99.90
44271;DHT22;29963;44.594;11.368;2022-11-11T16:49:37;15.60;99.90
44271;DHT22;29963;44.594;11.368;2022-11-11T16:52:18;15.50;99.90
44271;DHT22;29963;44.594;11.368;2022-11-11T16:54:51;15.50;99.90
44271;DHT22;29963;44.594;11.368;2022-11-11T16:57:28;15.40;99.90
44271;DHT22;29963;44.594;11.368;2022-11-11T17:00:02;15.40;99.90
44271;DHT22;29963;44.594;11.368;2022-11-11T17:02:28;15.30;99.90
44271;DHT22;29963;44.594;11.368;2022-11-11T17:04:56;15.30;99.90
44271;DHT22;29963;44.594;11.368;2022-11-11T17:07:29;15.30;99.90
44271;DHT22;29963;44.594;11.368;2022-11-11T17:12:34;15.30;99.90
44271;DHT22;29963;44.594;11.368;2022-11-11T17:15:02;15.30;99.90
44271;DHT22;29963;44.594;11.368;2022-11-11T17:17:31;15.20;99.90
44271;DHT22;29963;44.594;11.368;2022-11-11T17:20:02;15.10;99.90
44271;DHT22;29963;44.594;11.368;2022-11-11T17:22:29;15.10;99.90
44271;DHT22;29963;44.594;11.368;2022-11-11T17:24:55;15.10;99.90
44271;DHT22;29963;44.594;11.368;2022-11-11T17:27:21;15.00;99.90
44271;DHT22;29963;44.594;11.368;2022-11-11T17:29:46;15.00;99.90
44271;DHT22;29963;44.594;11.368;2022-11-11T17:32:12;15.00;99.90
44271;DHT22;29963;44.594;11.368;2022-11-11T17:34:38;15.00;99.90
44271;DHT22;29963;44.594;11.368;2022-11-11T17:37:04;15.00;99.90
44271;DHT22;29963;44.594;11.368;2022-11-11T17:39:29;14.90;99.90
44271;DHT22;29963;44.594;11.368;2022-11-11T17:41:55;14.90;99.90
44271;DHT22;29963;44.594;11.368;2022-11-11T17:44:21;14.90;99.90
44271;DHT22;29963;44.594;11.368;2022-11-11T17:46:46;14.80;99.90
44271;DHT22;29963;44.594;11.368;2022-11-11T17:49:12;14.80;99.90
44271;DHT22;29963;44.594;11.368;2022-11-11T17:51:37;14.70;99.90
44271;DHT22;29963;44.594;11.368;2022-11-11T17:54:06;14.80;99.90
44271;DHT22;29963;44.594;11.368;2022-11-11T17:56:32;14.70;99.90
44271;DHT22;29963;44.594;11.368;2022-11-11T17:58:58;14.60;99.90
44271;DHT22;29963;44.594;11.368;2022-11-11T18:01:24;14.60;99.90
44271;DHT22;29963;44.594;11.368;2022-11-11T18:03:54;14.50;99.90
44271;DHT22;29963;44.594;11.368;2022-11-11T18:06:19;14.40;99.90
44271;DHT22;29963;44.594;11.368;2022-11-11T18:08:45;14.40;99.90
44271;DHT22;29963;44.594;11.368;2022-11-11T18:11:11;14.40;99.90
44271;DHT22;29963;44.594;11.368;2022-11-11T18:13:36;14.30;99.90
44271;DHT22;29963;44.594;11.368;2022-11-11T18:16:02;14.30;99.90